createdAt,value
2022-12-04T00:01:58.508Z,102062.00
2022-12-04T00:04:25.136Z,102062.91
2022-12-04T00:06:58.621Z,102054.13
2022-12-04T00:09:25.694Z,102051.47
2022-12-04T00:11:52.136Z,102057.59
2022-12-04T00:14:19.100Z,102057.63
2022-12-04T00:16:45.842Z,102060.28
2022-12-04T00:19:12.429Z,102059.44
2022-12-04T00:21:38.982Z,102052.28
2022-12-04T00:24:05.969Z,102046.97
2022-12-04T00:26:32.502Z,102046.09
2022-12-04T00:28:59.098Z,102045.19
2022-12-04T00:31:28.214Z,102035.53
2022-12-04T00:33:55.416Z,102033.72
2022-12-04T00:36:24.598Z,102032.88
2022-12-04T00:38:51.899Z,102039.03
2022-12-04T00:41:21.159Z,102039.00
2022-12-04T00:43:47.780Z,102031.09
2022-12-04T00:46:15.457Z,102036.38
2022-12-04T00:48:42.885Z,102025.78
2022-12-04T00:51:15.874Z,102039.03
2022-12-04T00:53:42.884Z,102039.03
2022-12-04T00:56:15.012Z,102041.69
2022-12-04T00:58:42.782Z,102041.69
2022-12-04T01:01:15.798Z,102037.28
2022-12-04T01:03:43.387Z,102031.91
2022-12-04T01:06:20.828Z,102039.00
2022-12-04T01:08:48.112Z,102031.03
2022-12-04T01:11:14.547Z,102035.47
2022-12-04T01:13:40.947Z,102031.06
2022-12-04T01:16:07.738Z,102028.41
2022-12-04T01:18:34.347Z,102023.09
2022-12-04T01:21:00.812Z,102027.50
2022-12-04T01:23:27.222Z,102031.91
2022-12-04T01:25:56.003Z,102027.50
2022-12-04T01:28:23.002Z,102028.38
2022-12-04T01:31:03.189Z,102025.75
2022-12-04T01:33:30.250Z,102029.25
2022-12-04T01:35:59.181Z,102029.28
2022-12-04T01:38:26.188Z,102022.19
2022-12-04T01:40:53.230Z,102023.94
2022-12-04T01:43:20.178Z,102024.84
2022-12-04T01:45:51.471Z,102019.56
2022-12-04T01:48:32.019Z,102024.84
2022-12-04T01:51:26.814Z,102028.38
2022-12-04T01:53:57.423Z,102020.44
2022-12-04T01:56:31.616Z,102022.19
2022-12-04T01:59:01.573Z,102026.63
2022-12-04T02:01:31.910Z,102030.16
2022-12-04T02:04:02.212Z,102033.69
2022-12-04T02:06:28.608Z,102033.69
2022-12-04T02:08:55.304Z,102027.50
2022-12-04T02:11:46.562Z,102027.47
2022-12-04T02:14:44.399Z,102036.34
2022-12-04T02:17:18.936Z,102031.03
2022-12-04T02:20:09.596Z,102033.69
2022-12-04T02:22:35.933Z,102031.91
2022-12-04T02:25:21.467Z,102026.56
2022-12-04T02:27:54.116Z,102031.03
2022-12-04T02:30:20.753Z,102028.38
2022-12-04T02:32:59.776Z,102024.81
2022-12-04T02:35:40.642Z,102028.38
2022-12-04T02:38:13.919Z,102025.72
2022-12-04T02:40:56.506Z,102031.00
2022-12-04T02:43:37.912Z,102021.25
2022-12-04T02:46:13.662Z,102021.25
2022-12-04T02:48:43.911Z,102021.22
2022-12-04T02:51:14.807Z,102021.25
2022-12-04T02:53:47.371Z,102015.03
2022-12-04T02:56:22.813Z,102015.94
2022-12-04T02:59:00.004Z,102012.41
2022-12-04T03:01:32.390Z,102008.84
2022-12-04T03:04:08.462Z,102012.38
2022-12-04T03:06:39.286Z,102016.78
2022-12-04T03:09:15.827Z,102011.50
2022-12-04T03:11:49.917Z,102000.00
2022-12-04T03:14:25.566Z,102004.44
2022-12-04T03:16:57.341Z,102000.00
2022-12-04T03:19:28.243Z,101999.13
2022-12-04T03:22:00.011Z,101995.56
2022-12-04T03:24:34.163Z,101994.69
2022-12-04T03:27:03.656Z,101988.50
2022-12-04T03:29:42.913Z,101985.81
2022-12-04T03:32:15.871Z,101981.41
2022-12-04T03:34:58.894Z,101980.50
2022-12-04T03:37:49.522Z,101985.78
2022-12-04T03:40:28.793Z,101984.03
2022-12-04T03:43:01.834Z,101981.38
2022-12-04T03:45:39.193Z,101976.09
2022-12-04T03:48:16.764Z,101989.34
2022-12-04T03:51:17.879Z,101989.28
2022-12-04T03:54:05.082Z,101992.00
2022-12-04T03:56:38.641Z,101988.47
2022-12-04T03:59:11.118Z,101994.66
2022-12-04T04:01:43.176Z,101992.00
2022-12-04T04:04:14.725Z,101991.13
2022-12-04T04:06:47.228Z,101992.03
2022-12-04T04:09:19.143Z,101992.03
2022-12-04T04:11:54.835Z,101988.47
2022-12-04T04:14:49.638Z,101989.38
2022-12-04T04:17:39.144Z,101981.41
2022-12-04T04:20:35.445Z,101987.59
2022-12-04T04:23:24.292Z,101987.56
2022-12-04T04:25:53.476Z,101982.31
2022-12-04T04:28:28.669Z,101983.25
2022-12-04T04:31:12.160Z,101974.34
2022-12-04T04:33:49.179Z,101978.75
2022-12-04T04:36:43.334Z,101983.19
2022-12-04T04:39:36.307Z,101982.34
2022-12-04T04:42:06.626Z,101986.75
2022-12-04T04:45:05.426Z,101980.53
2022-12-04T04:47:46.129Z,101985.88
2022-12-04T04:50:15.094Z,101984.97
2022-12-04T04:52:47.003Z,101986.72
2022-12-04T04:55:14.932Z,101983.16
2022-12-04T04:57:41.456Z,101988.47
2022-12-04T05:00:11.912Z,101978.75
2022-12-04T05:02:38.462Z,101977.84
2022-12-04T05:05:05.841Z,101984.06
2022-12-04T05:07:32.335Z,101984.09
2022-12-04T05:09:59.270Z,101981.41
2022-12-04T05:12:25.912Z,101991.16
2022-12-04T05:14:52.583Z,101985.88
2022-12-04T05:17:19.466Z,101989.38
2022-12-04T05:19:56.227Z,101987.63
2022-12-04T05:22:26.717Z,101982.34
2022-12-04T05:24:54.177Z,101989.38
2022-12-04T05:27:21.723Z,101997.34
2022-12-04T05:29:48.860Z,101999.13
2022-12-04T05:32:15.727Z,101999.13
2022-12-04T05:34:42.426Z,101997.34
2022-12-04T05:37:08.895Z,102001.78
2022-12-04T05:39:35.671Z,101999.09
2022-12-04T05:42:02.089Z,102001.75
2022-12-04T05:44:28.464Z,101999.97
2022-12-04T05:46:54.980Z,102004.34
2022-12-04T05:49:21.498Z,101997.31
2022-12-04T05:51:50.577Z,101998.16
2022-12-04T05:54:18.954Z,101988.41
2022-12-04T05:56:45.827Z,101998.16
2022-12-04T05:59:12.956Z,101992.88
2022-12-04T06:01:39.845Z,101997.31
2022-12-04T06:04:06.399Z,101983.13
2022-12-04T06:06:32.921Z,101984.88
2022-12-04T06:09:00.092Z,101982.22
2022-12-04T06:11:34.822Z,101984.88
2022-12-04T06:14:04.169Z,101983.13
2022-12-04T06:16:36.414Z,101992.03
2022-12-04T06:19:06.899Z,101993.75
2022-12-04T06:21:35.391Z,101995.50
2022-12-04T06:24:02.374Z,101999.03
2022-12-04T06:26:29.027Z,101986.69
2022-12-04T06:28:56.864Z,101988.44
2022-12-04T06:31:24.187Z,101991.06
2022-12-04T06:33:51.123Z,101987.53
2022-12-04T06:36:21.093Z,101991.94
2022-12-04T06:38:49.220Z,101993.72
2022-12-04T06:41:17.875Z,102000.78
2022-12-04T06:43:44.744Z,101992.81
2022-12-04T06:46:18.747Z,101993.69
2022-12-04T06:48:45.578Z,102002.56
2022-12-04T06:51:17.532Z,101996.34
2022-12-04T06:53:44.726Z,102003.41
2022-12-04T06:56:16.247Z,101992.81
2022-12-04T06:58:42.741Z,101988.34
2022-12-04T07:01:12.141Z,101995.47
2022-12-04T07:03:39.549Z,102000.75
2022-12-04T07:06:12.077Z,102005.19
2022-12-04T07:08:38.599Z,101999.00
2022-12-04T07:11:05.539Z,101996.34
2022-12-04T07:13:31.915Z,101999.91
2022-12-04T07:16:03.032Z,102007.88
2022-12-04T07:18:31.070Z,102000.75
2022-12-04T07:20:57.912Z,102004.28
2022-12-04T07:23:24.469Z,102007.81
2022-12-04T07:25:51.039Z,102003.41
2022-12-04T07:28:17.543Z,102007.81
2022-12-04T07:30:44.611Z,101999.84
2022-12-04T07:33:11.084Z,101999.00
2022-12-04T07:35:37.505Z,102006.06
2022-12-04T07:38:03.907Z,102006.94
2022-12-04T07:40:30.816Z,102000.75
2022-12-04T07:42:57.299Z,102002.50
2022-12-04T07:45:23.841Z,102004.28
2022-12-04T07:47:50.230Z,102008.69
2022-12-04T07:50:16.814Z,102008.69
2022-12-04T07:52:43.281Z,102006.91
2022-12-04T07:55:09.868Z,102008.66
2022-12-04T07:57:36.444Z,102004.22
2022-12-04T08:00:03.809Z,102009.50
2022-12-04T08:02:38.310Z,102014.78
2022-12-04T08:05:05.102Z,102017.41
2022-12-04T08:07:32.261Z,102014.75
2022-12-04T08:09:58.814Z,102025.34
2022-12-04T08:12:25.310Z,102016.50
2022-12-04T08:14:51.774Z,102026.19
2022-12-04T08:17:18.361Z,102022.63
2022-12-04T08:19:44.825Z,102024.44
2022-12-04T08:22:11.313Z,102031.47
2022-12-04T08:24:37.785Z,102027.94
2022-12-04T08:27:04.483Z,102027.91
2022-12-04T08:29:30.926Z,102030.53
2022-12-04T08:31:57.385Z,102029.63
2022-12-04T08:34:23.900Z,102037.56
2022-12-04T08:36:50.452Z,102038.44
2022-12-04T08:39:16.910Z,102042.00
2022-12-04T08:41:43.413Z,102034.88
2022-12-04T08:44:10.243Z,102041.94
2022-12-04T08:46:37.019Z,102043.66
2022-12-04T08:49:03.565Z,102044.56
2022-12-04T08:51:32.274Z,102052.53
2022-12-04T08:54:01.918Z,102048.97
2022-12-04T08:56:30.637Z,102046.28
2022-12-04T08:58:57.679Z,102052.50
2022-12-04T09:01:25.718Z,102048.06
2022-12-04T09:03:52.766Z,102048.03
2022-12-04T09:06:19.705Z,102054.28
2022-12-04T09:08:46.698Z,102057.81
2022-12-04T09:11:16.873Z,102056.94
2022-12-04T09:13:44.571Z,102051.63
2022-12-04T09:16:14.762Z,102051.63
2022-12-04T09:18:41.400Z,102054.28
2022-12-04T09:21:11.553Z,102049.81
2022-12-04T09:23:39.395Z,102048.00
2022-12-04T09:26:15.302Z,102050.69
2022-12-04T09:28:41.716Z,102048.97
2022-12-04T09:31:08.220Z,102048.97
2022-12-04T09:33:34.744Z,102047.25
2022-12-04T09:36:02.845Z,102052.53
2022-12-04T09:38:30.388Z,102058.69
2022-12-04T09:41:30.052Z,102056.94
2022-12-04T09:44:10.440Z,102041.94
2022-12-04T09:46:45.495Z,102055.22
2022-12-04T09:49:17.121Z,102056.09
2022-12-04T09:51:43.903Z,102041.97
2022-12-04T09:54:18.514Z,102059.69
2022-12-04T09:56:53.448Z,102049.91
2022-12-04T09:59:25.448Z,102039.25
2022-12-04T10:01:58.633Z,102045.38
2022-12-04T10:04:25.545Z,102040.06
2022-12-04T10:07:10.995Z,102039.13
2022-12-04T10:09:55.135Z,102041.81
2022-12-04T10:12:44.760Z,102024.13
2022-12-04T10:15:29.617Z,102036.47
2022-12-04T10:18:23.860Z,102039.91
2022-12-04T10:21:04.771Z,102036.44
2022-12-04T10:23:40.711Z,102046.13
2022-12-04T10:26:16.959Z,102036.34
2022-12-04T10:28:55.745Z,102035.41
2022-12-04T10:31:24.535Z,102035.44
2022-12-04T10:33:55.755Z,102028.38
2022-12-04T10:36:28.082Z,102035.41
2022-12-04T10:39:14.182Z,102036.31
2022-12-04T10:41:52.254Z,102034.56
2022-12-04T10:44:22.032Z,102043.38
2022-12-04T10:46:50.995Z,102039.88
2022-12-04T10:49:22.788Z,102039.88
2022-12-04T10:51:49.600Z,102029.25
2022-12-04T10:54:26.950Z,102033.63
2022-12-04T10:57:08.220Z,102038.00
2022-12-04T10:59:35.477Z,102031.78
2022-12-04T11:02:22.524Z,102017.63
2022-12-04T11:05:01.308Z,102026.38
2022-12-04T11:07:31.894Z,102021.88
2022-12-04T11:10:03.337Z,102019.22
2022-12-04T11:12:32.112Z,102015.69
2022-12-04T11:15:12.350Z,102013.91
2022-12-04T11:17:39.231Z,102012.13
2022-12-04T11:20:09.414Z,102005.91
2022-12-04T11:22:48.070Z,102019.22
2022-12-04T11:25:18.861Z,102021.03
2022-12-04T11:27:55.719Z,102012.97
2022-12-04T11:30:29.571Z,102008.53
2022-12-04T11:32:57.152Z,102005.88
2022-12-04T11:35:26.118Z,102015.59
2022-12-04T11:37:59.160Z,102003.22
2022-12-04T11:40:26.918Z,102010.25
2022-12-04T11:43:25.268Z,102002.25
2022-12-04T11:46:00.157Z,101986.25
2022-12-04T11:48:29.113Z,101990.66
2022-12-04T11:51:21.456Z,101980.00
2022-12-04T11:53:55.715Z,101976.41
2022-12-04T11:56:46.188Z,101971.09
2022-12-04T11:59:12.650Z,101964.94
2022-12-04T12:02:11.194Z,101955.16
2022-12-04T12:04:49.895Z,101956.88
2022-12-04T12:07:41.287Z,101955.09
2022-12-04T12:10:17.435Z,101951.50
2022-12-04T12:13:03.543Z,101940.00
2022-12-04T12:15:48.746Z,101940.00
2022-12-04T12:18:40.957Z,101942.63
2022-12-04T12:21:14.426Z,101947.88
2022-12-04T12:24:08.541Z,101945.19
2022-12-04T12:27:02.839Z,101950.50
2022-12-04T12:29:48.205Z,101946.91
2022-12-04T12:32:40.112Z,101945.06
2022-12-04T12:35:29.901Z,101946.88
2022-12-04T12:38:01.501Z,101938.91
2022-12-04T12:40:44.740Z,101938.88
2022-12-04T12:43:31.825Z,101945.94
2022-12-04T12:46:27.585Z,101944.22
2022-12-04T12:49:06.406Z,101945.97
2022-12-04T12:51:58.458Z,101934.38
2022-12-04T12:54:53.406Z,101932.53
2022-12-04T12:57:37.587Z,101930.75
2022-12-04T13:00:15.573Z,101933.44
2022-12-04T13:03:04.029Z,101930.78
2022-12-04T13:05:37.264Z,101931.69
2022-12-04T13:08:27.675Z,101937.00
2022-12-04T13:11:13.463Z,101932.53
2022-12-04T13:14:00.927Z,101926.38
2022-12-04T13:16:40.642Z,101926.31
2022-12-04T13:19:07.104Z,101928.06
2022-12-04T13:21:37.438Z,101920.97
2022-12-04T13:24:37.659Z,101923.63
2022-12-04T13:27:34.701Z,101919.16
2022-12-04T13:30:09.842Z,101921.81
2022-12-04T13:32:57.696Z,101920.09
2022-12-04T13:36:01.979Z,101927.16
2022-12-04T13:38:49.911Z,101921.88
2022-12-04T13:41:23.958Z,101918.38
2022-12-04T13:43:53.030Z,101913.09
2022-12-04T13:46:31.366Z,101917.47
2022-12-04T13:49:08.613Z,101917.44
2022-12-04T13:51:39.051Z,101920.06
2022-12-04T13:54:11.759Z,101910.31
2022-12-04T13:56:40.671Z,101921.81
2022-12-04T13:59:36.097Z,101920.97
2022-12-04T14:02:21.303Z,101929.81
2022-12-04T14:05:01.873Z,101936.03
2022-12-04T14:07:38.811Z,101936.03
2022-12-04T14:10:07.587Z,101943.09
2022-12-04T14:12:39.049Z,101931.63
2022-12-04T14:15:38.994Z,101944.91
2022-12-04T14:18:28.200Z,101938.78
2022-12-04T14:21:05.424Z,101940.53
2022-12-04T14:23:41.014Z,101936.16
2022-12-04T14:26:21.975Z,101943.28
2022-12-04T14:28:48.879Z,101943.28
2022-12-04T14:31:24.037Z,101938.84
2022-12-04T14:33:56.180Z,101936.22
2022-12-04T14:36:33.352Z,101932.63
2022-12-04T14:39:24.288Z,101938.88
2022-12-04T14:41:52.173Z,101937.09
2022-12-04T14:44:27.347Z,101931.78
2022-12-04T14:46:57.541Z,101934.47
2022-12-04T14:50:01.382Z,101939.78
2022-12-04T14:53:09.272Z,101939.81
2022-12-04T14:56:07.434Z,101930.09
2022-12-04T14:58:37.665Z,101935.47
2022-12-04T15:01:15.993Z,101938.97
2022-12-04T15:03:45.919Z,101933.63
2022-12-04T15:06:21.595Z,101932.72
2022-12-04T15:09:19.076Z,101931.88
2022-12-04T15:12:08.934Z,101932.81
2022-12-04T15:14:51.323Z,101935.44
2022-12-04T15:17:18.777Z,101935.41
2022-12-04T15:19:45.779Z,101938.09
2022-12-04T15:22:20.599Z,101935.44
2022-12-04T15:24:47.054Z,101929.22
2022-12-04T15:27:16.681Z,101930.09
2022-12-04T15:29:48.229Z,101935.44
2022-12-04T15:32:17.406Z,101936.28
2022-12-04T15:34:48.872Z,101941.59
2022-12-04T15:37:28.614Z,101938.09
2022-12-04T15:39:56.502Z,101945.16
2022-12-04T15:42:27.290Z,101951.34
2022-12-04T15:45:01.185Z,101950.44
2022-12-04T15:47:49.903Z,101954.81
2022-12-04T15:50:16.375Z,101952.13
2022-12-04T15:53:14.721Z,101952.13
2022-12-04T15:55:56.872Z,101957.41
2022-12-04T15:58:28.159Z,101954.72
2022-12-04T16:01:05.627Z,101959.13
2022-12-04T16:03:38.757Z,101954.72
2022-12-04T16:06:29.742Z,101959.97
2022-12-04T16:09:01.343Z,101959.97
2022-12-04T16:11:37.246Z,101961.72
2022-12-04T16:14:09.471Z,101966.09
2022-12-04T16:16:38.421Z,101970.50
2022-12-04T16:19:35.285Z,101967.78
2022-12-04T16:22:03.660Z,101970.38
2022-12-04T16:24:30.716Z,101967.75
2022-12-04T16:27:00.081Z,101972.13
2022-12-04T16:29:26.576Z,101982.72
2022-12-04T16:31:55.158Z,101964.06
2022-12-04T16:34:26.074Z,101964.06
2022-12-04T16:36:52.506Z,101956.97
2022-12-04T16:39:18.977Z,101960.50
2022-12-04T16:41:45.442Z,101960.47
2022-12-04T16:44:15.511Z,101955.13
2022-12-04T16:46:42.748Z,101957.78
2022-12-04T16:49:12.860Z,101964.84
2022-12-04T16:51:43.630Z,101965.72
2022-12-04T16:54:12.105Z,101970.97
2022-12-04T16:56:39.067Z,101971.84
2022-12-04T16:59:11.593Z,101957.63
2022-12-04T17:01:47.772Z,101960.25
2022-12-04T17:04:15.916Z,101958.44
2022-12-04T17:06:42.558Z,101959.28
2022-12-04T17:09:09.639Z,101956.63
2022-12-04T17:11:37.048Z,101955.75
2022-12-04T17:14:07.380Z,101959.22
2022-12-04T17:16:38.481Z,101961.84
2022-12-04T17:19:05.157Z,101959.16
2022-12-04T17:21:33.688Z,101956.44
2022-12-04T17:24:01.010Z,101959.03
2022-12-04T17:26:28.235Z,101962.63
2022-12-04T17:28:54.673Z,101959.91
2022-12-04T17:31:23.924Z,101958.97
2022-12-04T17:33:50.864Z,101966.91
2022-12-04T17:36:20.162Z,101973.13
2022-12-04T17:38:47.116Z,101967.78
2022-12-04T17:41:15.063Z,101965.13
2022-12-04T17:43:43.528Z,101973.97
2022-12-04T17:46:12.008Z,101981.00
2022-12-04T17:48:38.928Z,101979.25
2022-12-04T17:51:08.109Z,101981.84
2022-12-04T17:53:35.126Z,101981.84
2022-12-04T17:56:13.147Z,101986.28
2022-12-04T17:58:40.207Z,101982.69
2022-12-04T18:01:13.805Z,101980.00
2022-12-04T18:03:41.374Z,101972.94
2022-12-04T18:06:13.329Z,101973.78
2022-12-04T18:08:55.081Z,101984.41
2022-12-04T18:11:23.788Z,101983.53
2022-12-04T18:13:56.209Z,101989.69
2022-12-04T18:16:22.901Z,101987.91
2022-12-04T18:18:50.807Z,101991.47
2022-12-04T18:21:17.368Z,101994.09
2022-12-04T18:23:46.396Z,101997.59
2022-12-04T18:26:16.093Z,101997.59
2022-12-04T18:28:43.407Z,101993.13
2022-12-04T18:31:09.986Z,101996.69
2022-12-04T18:33:38.918Z,101994.00
2022-12-04T18:36:06.796Z,101998.47
2022-12-04T18:38:33.226Z,102010.91
2022-12-04T18:41:06.919Z,102010.06
2022-12-04T18:43:45.155Z,102001.19
2022-12-04T18:46:13.983Z,101998.53
2022-12-04T18:48:42.763Z,101998.56
2022-12-04T18:51:15.962Z,101996.78
2022-12-04T18:53:43.251Z,101992.34
2022-12-04T18:56:09.911Z,101998.56
2022-12-04T18:58:36.457Z,101997.72
2022-12-04T19:01:11.335Z,101999.50
2022-12-04T19:03:38.312Z,101999.56
2022-12-04T19:06:05.313Z,101988.94
2022-12-04T19:08:34.346Z,101991.56
2022-12-04T19:11:07.162Z,101996.94
2022-12-04T19:13:34.146Z,101996.00
2022-12-04T19:16:00.910Z,101999.56
2022-12-04T19:18:27.575Z,101997.78
2022-12-04T19:20:54.366Z,101997.78
2022-12-04T19:23:22.791Z,101996.94
2022-12-04T19:26:02.712Z,101996.03
2022-12-04T19:28:29.907Z,102000.44
2022-12-04T19:30:56.666Z,102005.72
2022-12-04T19:33:24.109Z,101993.34
2022-12-04T19:35:59.404Z,101991.59
2022-12-04T19:38:26.891Z,102001.28
2022-12-04T19:41:10.175Z,101995.97
2022-12-04T19:43:38.599Z,102005.72
2022-12-04T19:46:07.015Z,102003.91
2022-12-04T19:48:33.990Z,101997.72
2022-12-04T19:51:12.087Z,102002.16
2022-12-04T19:53:41.156Z,102002.09
2022-12-04T19:56:11.554Z,102003.00
2022-12-04T19:58:38.937Z,102001.22
2022-12-04T20:01:07.806Z,102006.50
2022-12-04T20:03:35.634Z,102000.34
2022-12-04T20:06:07.833Z,102006.50
2022-12-04T20:08:35.374Z,102002.03
2022-12-04T20:11:05.712Z,102002.03
2022-12-04T20:13:35.505Z,102002.91
2022-12-04T20:16:05.154Z,101995.81
2022-12-04T20:18:32.032Z,102003.78
2022-12-04T20:21:00.779Z,102010.84
2022-12-04T20:23:54.265Z,102005.47
2022-12-04T20:26:26.318Z,102000.16
2022-12-04T20:28:55.771Z,101992.16
2022-12-04T20:31:28.823Z,101993.00
2022-12-04T20:33:58.399Z,101991.22
2022-12-04T20:36:27.741Z,101993.91
2022-12-04T20:38:55.372Z,101998.31
2022-12-04T20:41:22.632Z,101992.97
2022-12-04T20:43:49.297Z,101995.59
2022-12-04T20:46:24.903Z,101994.66
2022-12-04T20:48:53.384Z,101994.66
2022-12-04T20:51:23.489Z,101995.53
2022-12-04T20:53:50.839Z,101999.97
2022-12-04T20:56:19.139Z,102002.63
2022-12-04T20:58:45.899Z,102005.25
2022-12-04T21:01:15.636Z,102000.78
2022-12-04T21:03:43.124Z,102000.78
2022-12-04T21:06:19.669Z,102001.56
2022-12-04T21:08:53.300Z,102005.13
2022-12-04T21:11:20.820Z,102006.88
2022-12-04T21:14:05.973Z,102003.31
2022-12-04T21:16:32.861Z,102010.38
2022-12-04T21:18:59.338Z,101998.84
2022-12-04T21:21:26.823Z,102000.53
2022-12-04T21:23:53.390Z,102009.47
2022-12-04T21:26:20.574Z,102006.72
2022-12-04T21:28:47.515Z,102005.78
2022-12-04T21:31:14.555Z,102008.41
2022-12-04T21:33:41.038Z,102007.50
2022-12-04T21:36:09.437Z,101998.56
2022-12-04T21:38:37.995Z,102002.09
2022-12-04T21:41:06.604Z,102003.84
2022-12-04T21:43:34.068Z,102000.31
2022-12-04T21:46:09.347Z,101994.97
2022-12-04T21:48:36.421Z,101994.00
2022-12-04T21:51:21.271Z,101995.78
2022-12-04T21:53:54.751Z,102000.22
2022-12-04T21:56:22.504Z,101993.09
2022-12-04T21:58:49.307Z,101998.41
2022-12-04T22:01:17.486Z,101986.84
2022-12-04T22:03:44.656Z,102007.28
2022-12-04T22:06:11.219Z,101999.25
2022-12-04T22:08:39.888Z,102009.84
2022-12-04T22:11:08.807Z,102008.91
2022-12-04T22:13:36.535Z,102001.84
2022-12-04T22:16:04.848Z,102009.81
2022-12-04T22:18:31.722Z,102006.22
2022-12-04T22:20:58.170Z,102007.09
2022-12-04T22:23:24.611Z,102004.38
2022-12-04T22:25:51.279Z,101998.16
2022-12-04T22:28:18.344Z,102006.16
2022-12-04T22:30:44.738Z,102000.78
2022-12-04T22:33:11.246Z,101999.91
2022-12-04T22:35:37.701Z,101998.94
2022-12-04T22:38:04.117Z,101997.16
2022-12-04T22:40:30.558Z,101996.28
2022-12-04T22:42:56.926Z,102000.69
2022-12-04T22:45:23.367Z,102004.19
2022-12-04T22:47:49.758Z,102007.69
2022-12-04T22:50:16.192Z,102008.59
2022-12-04T22:52:42.817Z,102003.25
2022-12-04T22:55:09.418Z,102010.38
2022-12-04T22:57:36.003Z,102004.16
2022-12-04T23:00:02.564Z,102006.78
2022-12-04T23:02:29.062Z,102004.94
2022-12-04T23:04:55.554Z,101996.03
2022-12-04T23:07:22.203Z,101996.97
2022-12-04T23:09:48.609Z,102001.28
2022-12-04T23:12:15.634Z,101996.84
2022-12-04T23:14:42.120Z,101997.69
2022-12-04T23:17:08.601Z,101993.19
2022-12-04T23:19:35.194Z,101995.81
2022-12-04T23:22:01.690Z,101995.81
2022-12-04T23:24:28.736Z,101990.44
2022-12-04T23:26:55.318Z,101984.19
2022-12-04T23:29:52.861Z,101980.63
2022-12-04T23:32:08.142Z,101985.00
2022-12-04T23:34:34.576Z,101982.31
2022-12-04T23:37:00.957Z,101977.91
2022-12-04T23:39:27.419Z,101984.06
2022-12-04T23:41:53.878Z,101976.91
2022-12-04T23:44:20.306Z,101982.19
2022-12-04T23:46:46.844Z,101991.06
2022-12-04T23:49:13.650Z,101988.31
2022-12-04T23:51:40.110Z,101991.88
2022-12-04T23:54:06.671Z,101990.94
2022-12-04T23:56:33.116Z,101984.72
2022-12-04T23:58:59.772Z,101987.38
